Mooresville, North Carolina
Current Conditions -  °F | °C
As of 10:55 PM on Tuesday 25 Nov 2014 (Local Time) from KJQF Reporting Station
Moderate Rain Moderate Rain  
Wind Chill: 50°   Ceiling: 2700
Heat Index: 50°   Visibility: 7mi
Dew Point: 46°   Wind: 0mph
Humidity: 87%   Direction: NA
Pressure: 30.1"   Gusts: NA
Location:  35.58°N, 80.81°W
Report Text: KJQF 260355Z AUTO 00000KT 7SM RA SCT016 OVC027 10/08 A3010 RMK AO2 P0005
Loading
Personal Weather Stations






























Interactive Weather Map New forecast layout! Learn more

10-Day Weather Forecast

Advertisements
Track Severe Weather on mobile